Aviation Digital Data Service (ADDS)

Output produced by TAFs form (0837 UTC 22 February 2017)
found at http://aviationweather.gov/adds/tafs/
 
KDMN 220537Z 2206/2306 26005KT P6SM SKC 
     FM222000 26012G19KT P6SM SKC 
     FM230100 27007KT P6SM FEW250